sensor_id;sensor_type;location;lat;lon;timestamp;temperature;humidity
41220;DHT22;26951;47.338;9.196;2022-08-11T00:01:37;13.60;57.60
41220;DHT22;26951;47.338;9.196;2022-08-11T00:04:34;13.60;58.60
41220;DHT22;26951;47.338;9.196;2022-08-11T00:07:19;13.60;58.20
41220;DHT22;26951;47.338;9.196;2022-08-11T00:10:09;13.60;58.10
41220;DHT22;26951;47.338;9.196;2022-08-11T00:12:57;13.60;58.10
41220;DHT22;26951;47.338;9.196;2022-08-11T00:15:43;13.60;58.60
41220;DHT22;26951;47.338;9.196;2022-08-11T00:18:33;13.60;59.10
41220;DHT22;26951;47.338;9.196;2022-08-11T00:21:23;13.60;58.80
41220;DHT22;26951;47.338;9.196;2022-08-11T00:24:08;13.60;58.00
41220;DHT22;26951;47.338;9.196;2022-08-11T00:26:54;13.60;57.20
41220;DHT22;26951;47.338;9.196;2022-08-11T00:29:38;13.60;57.60
41220;DHT22;26951;47.338;9.196;2022-08-11T00:32:22;13.50;57.10
41220;DHT22;26951;47.338;9.196;2022-08-11T00:35:11;13.50;57.20
41220;DHT22;26951;47.338;9.196;2022-08-11T00:37:56;13.40;57.80
41220;DHT22;26951;47.338;9.196;2022-08-11T00:41:08;13.40;58.50
41220;DHT22;26951;47.338;9.196;2022-08-11T00:47:38;13.40;58.50
41220;DHT22;26951;47.338;9.196;2022-08-11T01:00:11;13.40;58.80
41220;DHT22;26951;47.338;9.196;2022-08-11T01:03:07;13.40;58.80
41220;DHT22;26951;47.338;9.196;2022-08-11T01:06:15;13.30;58.00
41220;DHT22;26951;47.338;9.196;2022-08-11T01:22:09;13.20;58.70
41220;DHT22;26951;47.338;9.196;2022-08-11T01:28:26;13.10;58.70
41220;DHT22;26951;47.338;9.196;2022-08-11T01:44:11;13.00;60.00
41220;DHT22;26951;47.338;9.196;2022-08-11T01:47:25;13.00;59.60
41220;DHT22;26951;47.338;9.196;2022-08-11T01:51:04;13.00;60.30
41220;DHT22;26951;47.338;9.196;2022-08-11T01:59:56;12.80;61.60
41220;DHT22;26951;47.338;9.196;2022-08-11T02:05:57;12.80;61.10
41220;DHT22;26951;47.338;9.196;2022-08-11T02:08:47;12.80;60.20
41220;DHT22;26951;47.338;9.196;2022-08-11T02:11:35;12.80;60.40
41220;DHT22;26951;47.338;9.196;2022-08-11T02:14:27;12.90;60.80
41220;DHT22;26951;47.338;9.196;2022-08-11T02:20:54;12.90;61.30
41220;DHT22;26951;47.338;9.196;2022-08-11T02:24:01;12.80;61.50
41220;DHT22;26951;47.338;9.196;2022-08-11T02:26:53;12.80;60.60
41220;DHT22;26951;47.338;9.196;2022-08-11T02:30:03;12.80;60.70
41220;DHT22;26951;47.338;9.196;2022-08-11T02:33:03;12.80;60.70
41220;DHT22;26951;47.338;9.196;2022-08-11T02:36:20;12.80;60.80
41220;DHT22;26951;47.338;9.196;2022-08-11T02:39:13;12.70;63.40
41220;DHT22;26951;47.338;9.196;2022-08-11T02:42:10;12.70;62.40
41220;DHT22;26951;47.338;9.196;2022-08-11T02:48:27;12.60;62.90
41220;DHT22;26951;47.338;9.196;2022-08-11T02:54:52;12.70;63.30
41220;DHT22;26951;47.338;9.196;2022-08-11T03:01:05;12.80;63.10
41220;DHT22;26951;47.338;9.196;2022-08-11T03:04:02;12.80;62.80
41220;DHT22;26951;47.338;9.196;2022-08-11T03:07:00;12.80;62.20
41220;DHT22;26951;47.338;9.196;2022-08-11T03:09:57;12.80;61.90
41220;DHT22;26951;47.338;9.196;2022-08-11T03:16:23;12.70;59.70
41220;DHT22;26951;47.338;9.196;2022-08-11T03:25:33;12.60;62.50
41220;DHT22;26951;47.338;9.196;2022-08-11T03:31:20;12.60;61.20
41220;DHT22;26951;47.338;9.196;2022-08-11T03:34:12;12.60;60.80
41220;DHT22;26951;47.338;9.196;2022-08-11T03:43:53;12.50;62.60
41220;DHT22;26951;47.338;9.196;2022-08-11T03:50:27;12.50;61.50
41220;DHT22;26951;47.338;9.196;2022-08-11T03:53:34;12.40;62.10
41220;DHT22;26951;47.338;9.196;2022-08-11T04:06:29;12.30;61.10
41220;DHT22;26951;47.338;9.196;2022-08-11T04:13:08;12.30;61.70
41220;DHT22;26951;47.338;9.196;2022-08-11T04:16:39;12.30;62.70
41220;DHT22;26951;47.338;9.196;2022-08-11T04:26:07;12.20;61.40
41220;DHT22;26951;47.338;9.196;2022-08-11T04:52:05;12.10;63.00
41220;DHT22;26951;47.338;9.196;2022-08-11T04:55:38;12.10;63.80
41220;DHT22;26951;47.338;9.196;2022-08-11T05:05:02;12.10;63.10
41220;DHT22;26951;47.338;9.196;2022-08-11T05:11:02;12.20;62.60
41220;DHT22;26951;47.338;9.196;2022-08-11T05:13:57;12.20;64.30
41220;DHT22;26951;47.338;9.196;2022-08-11T05:17:14;12.20;64.20
41220;DHT22;26951;47.338;9.196;2022-08-11T05:20:19;12.30;64.50
41220;DHT22;26951;47.338;9.196;2022-08-11T05:23:26;12.30;65.00
41220;DHT22;26951;47.338;9.196;2022-08-11T05:26:43;12.30;66.70
41220;DHT22;26951;47.338;9.196;2022-08-11T05:30:12;12.40;66.80
41220;DHT22;26951;47.338;9.196;2022-08-11T05:33:20;12.40;67.50
41220;DHT22;26951;47.338;9.196;2022-08-11T05:39:20;12.50;67.50
41220;DHT22;26951;47.338;9.196;2022-08-11T05:42:25;12.60;67.70
41220;DHT22;26951;47.338;9.196;2022-08-11T05:45:28;12.70;67.80
41220;DHT22;26951;47.338;9.196;2022-08-11T05:48:33;12.70;67.50
41220;DHT22;26951;47.338;9.196;2022-08-11T05:51:40;12.80;67.90
41220;DHT22;26951;47.338;9.196;2022-08-11T05:54:44;12.90;69.10
41220;DHT22;26951;47.338;9.196;2022-08-11T05:57:51;13.00;70.30
41220;DHT22;26951;47.338;9.196;2022-08-11T06:00:44;13.10;70.90
41220;DHT22;26951;47.338;9.196;2022-08-11T06:03:29;13.40;71.30
41220;DHT22;26951;47.338;9.196;2022-08-11T06:06:15;13.60;73.60
41220;DHT22;26951;47.338;9.196;2022-08-11T06:08:59;14.00;80.40
41220;DHT22;26951;47.338;9.196;2022-08-11T06:11:44;14.40;88.20
41220;DHT22;26951;47.338;9.196;2022-08-11T06:14:28;14.90;90.60
41220;DHT22;26951;47.338;9.196;2022-08-11T06:17:13;15.40;90.80
41220;DHT22;26951;47.338;9.196;2022-08-11T06:20:07;15.90;84.00
41220;DHT22;26951;47.338;9.196;2022-08-11T06:22:58;16.50;82.40
41220;DHT22;26951;47.338;9.196;2022-08-11T06:25:45;17.10;76.70
41220;DHT22;26951;47.338;9.196;2022-08-11T06:28:32;17.80;71.10
41220;DHT22;26951;47.338;9.196;2022-08-11T06:31:20;18.30;64.70
41220;DHT22;26951;47.338;9.196;2022-08-11T06:34:08;18.90;61.60
41220;DHT22;26951;47.338;9.196;2022-08-11T06:37:05;19.30;57.40
41220;DHT22;26951;47.338;9.196;2022-08-11T06:40:07;19.70;58.10
41220;DHT22;26951;47.338;9.196;2022-08-11T06:43:14;20.30;57.50
41220;DHT22;26951;47.338;9.196;2022-08-11T06:46:06;20.80;54.00
41220;DHT22;26951;47.338;9.196;2022-08-11T06:48:52;21.20;54.20
41220;DHT22;26951;47.338;9.196;2022-08-11T06:51:37;21.50;51.60
41220;DHT22;26951;47.338;9.196;2022-08-11T06:54:24;21.80;51.50
41220;DHT22;26951;47.338;9.196;2022-08-11T06:57:12;22.00;48.10
41220;DHT22;26951;47.338;9.196;2022-08-11T07:00:19;22.00;48.80
41220;DHT22;26951;47.338;9.196;2022-08-11T07:03:16;22.10;47.90
41220;DHT22;26951;47.338;9.196;2022-08-11T07:12:48;22.60;47.00
41220;DHT22;26951;47.338;9.196;2022-08-11T07:15:55;22.60;46.10
41220;DHT22;26951;47.338;9.196;2022-08-11T07:18:42;22.60;45.90
41220;DHT22;26951;47.338;9.196;2022-08-11T07:21:49;22.70;45.10
41220;DHT22;26951;47.338;9.196;2022-08-11T07:25:00;22.80;44.00
41220;DHT22;26951;47.338;9.196;2022-08-11T07:28:28;22.90;43.60
41220;DHT22;26951;47.338;9.196;2022-08-11T07:31:34;23.10;44.90
41220;DHT22;26951;47.338;9.196;2022-08-11T07:34:35;23.40;43.70
41220;DHT22;26951;47.338;9.196;2022-08-11T07:37:22;23.50;43.10
41220;DHT22;26951;47.338;9.196;2022-08-11T07:40:08;23.60;43.00
41220;DHT22;26951;47.338;9.196;2022-08-11T07:42:52;23.60;41.60
41220;DHT22;26951;47.338;9.196;2022-08-11T07:45:41;23.70;44.00
41220;DHT22;26951;47.338;9.196;2022-08-11T07:48:45;23.90;42.70
41220;DHT22;26951;47.338;9.196;2022-08-11T07:51:48;24.20;40.70
41220;DHT22;26951;47.338;9.196;2022-08-11T07:54:54;24.60;42.50
41220;DHT22;26951;47.338;9.196;2022-08-11T07:57:39;24.90;41.90
41220;DHT22;26951;47.338;9.196;2022-08-11T08:00:55;25.00;42.00
41220;DHT22;26951;47.338;9.196;2022-08-11T08:03:59;25.00;39.10
41220;DHT22;26951;47.338;9.196;2022-08-11T08:07:03;25.20;39.70
41220;DHT22;26951;47.338;9.196;2022-08-11T08:10:08;25.40;39.30
41220;DHT22;26951;47.338;9.196;2022-08-11T08:13:12;25.60;39.70
41220;DHT22;26951;47.338;9.196;2022-08-11T08:16:15;25.80;38.60
41220;DHT22;26951;47.338;9.196;2022-08-11T08:19:20;25.90;39.10
41220;DHT22;26951;47.338;9.196;2022-08-11T08:22:04;26.10;37.40
41220;DHT22;26951;47.338;9.196;2022-08-11T08:24:48;26.10;39.00
41220;DHT22;26951;47.338;9.196;2022-08-11T08:27:34;26.20;38.90
41220;DHT22;26951;47.338;9.196;2022-08-11T08:30:19;26.40;39.00
41220;DHT22;26951;47.338;9.196;2022-08-11T08:33:25;26.60;36.90
41220;DHT22;26951;47.338;9.196;2022-08-11T08:36:10;26.70;37.60
41220;DHT22;26951;47.338;9.196;2022-08-11T08:38:55;26.80;38.00
41220;DHT22;26951;47.338;9.196;2022-08-11T08:41:40;26.90;38.30
41220;DHT22;26951;47.338;9.196;2022-08-11T08:44:26;27.10;37.40
41220;DHT22;26951;47.338;9.196;2022-08-11T08:47:14;27.20;36.60
41220;DHT22;26951;47.338;9.196;2022-08-11T08:50:02;27.20;36.90
41220;DHT22;26951;47.338;9.196;2022-08-11T08:52:55;27.20;36.40
41220;DHT22;26951;47.338;9.196;2022-08-11T08:55:41;27.20;36.40
41220;DHT22;26951;47.338;9.196;2022-08-11T08:58:28;27.10;37.60
41220;DHT22;26951;47.338;9.196;2022-08-11T09:01:15;27.10;36.60
41220;DHT22;26951;47.338;9.196;2022-08-11T09:04:06;27.20;36.90
41220;DHT22;26951;47.338;9.196;2022-08-11T09:07:02;27.20;36.50
41220;DHT22;26951;47.338;9.196;2022-08-11T09:09:52;27.50;34.70
41220;DHT22;26951;47.338;9.196;2022-08-11T09:12:39;27.60;38.30
41220;DHT22;26951;47.338;9.196;2022-08-11T09:15:24;27.70;37.70
41220;DHT22;26951;47.338;9.196;2022-08-11T09:18:09;27.70;38.30
41220;DHT22;26951;47.338;9.196;2022-08-11T09:20:55;27.80;36.20
41220;DHT22;26951;47.338;9.196;2022-08-11T09:23:40;27.90;34.00
41220;DHT22;26951;47.338;9.196;2022-08-11T09:26:43;27.90;37.40
41220;DHT22;26951;47.338;9.196;2022-08-11T09:29:46;28.10;36.40
41220;DHT22;26951;47.338;9.196;2022-08-11T09:32:32;28.20;37.40
41220;DHT22;26951;47.338;9.196;2022-08-11T09:35:16;28.30;35.60
41220;DHT22;26951;47.338;9.196;2022-08-11T09:38:04;28.50;36.20
41220;DHT22;26951;47.338;9.196;2022-08-11T09:41:08;28.70;33.50
41220;DHT22;26951;47.338;9.196;2022-08-11T09:43:53;28.60;34.20
41220;DHT22;26951;47.338;9.196;2022-08-11T09:46:56;28.60;35.00
41220;DHT22;26951;47.338;9.196;2022-08-11T09:49:43;28.60;34.40
41220;DHT22;26951;47.338;9.196;2022-08-11T09:52:31;28.50;35.70
41220;DHT22;26951;47.338;9.196;2022-08-11T09:55:18;28.50;33.90
41220;DHT22;26951;47.338;9.196;2022-08-11T09:58:02;28.60;34.30
41220;DHT22;26951;47.338;9.196;2022-08-11T10:01:00;28.50;35.20
41220;DHT22;26951;47.338;9.196;2022-08-11T10:03:45;28.40;34.50
41220;DHT22;26951;47.338;9.196;2022-08-11T10:06:30;28.30;34.70
41220;DHT22;26951;47.338;9.196;2022-08-11T10:09:51;28.30;35.00
41220;DHT22;26951;47.338;9.196;2022-08-11T10:12:41;28.40;34.70
41220;DHT22;26951;47.338;9.196;2022-08-11T10:15:30;28.40;34.70
41220;DHT22;26951;47.338;9.196;2022-08-11T10:18:29;28.40;36.40
41220;DHT22;26951;47.338;9.196;2022-08-11T10:21:35;28.50;34.60
41220;DHT22;26951;47.338;9.196;2022-08-11T10:24:20;28.40;34.20
41220;DHT22;26951;47.338;9.196;2022-08-11T10:27:24;28.30;33.90
41220;DHT22;26951;47.338;9.196;2022-08-11T10:30:10;28.10;34.70
41220;DHT22;26951;47.338;9.196;2022-08-11T10:33:13;27.90;35.40
41220;DHT22;26951;47.338;9.196;2022-08-11T10:36:19;27.80;35.50
41220;DHT22;26951;47.338;9.196;2022-08-11T10:39:04;27.70;36.60
41220;DHT22;26951;47.338;9.196;2022-08-11T10:41:49;27.70;36.00
41220;DHT22;26951;47.338;9.196;2022-08-11T10:44:54;27.80;36.90
41220;DHT22;26951;47.338;9.196;2022-08-11T10:47:40;27.80;35.20
41220;DHT22;26951;47.338;9.196;2022-08-11T10:50:27;27.90;34.90
41220;DHT22;26951;47.338;9.196;2022-08-11T10:53:31;27.90;35.70
41220;DHT22;26951;47.338;9.196;2022-08-11T10:56:36;27.90;36.10
41220;DHT22;26951;47.338;9.196;2022-08-11T10:59:40;27.90;36.90
41220;DHT22;26951;47.338;9.196;2022-08-11T11:02:26;27.90;35.70
41220;DHT22;26951;47.338;9.196;2022-08-11T11:05:23;27.80;34.40
41220;DHT22;26951;47.338;9.196;2022-08-11T11:08:13;28.00;36.40
41220;DHT22;26951;47.338;9.196;2022-08-11T11:11:17;28.20;34.70
41220;DHT22;26951;47.338;9.196;2022-08-11T11:14:02;28.30;37.00
41220;DHT22;26951;47.338;9.196;2022-08-11T11:17:06;28.40;33.50
41220;DHT22;26951;47.338;9.196;2022-08-11T11:20:12;28.50;34.80
41220;DHT22;26951;47.338;9.196;2022-08-11T11:23:04;28.50;32.90
41220;DHT22;26951;47.338;9.196;2022-08-11T11:29:25;28.70;32.50
41220;DHT22;26951;47.338;9.196;2022-08-11T11:32:16;28.70;33.00
41220;DHT22;26951;47.338;9.196;2022-08-11T11:35:25;28.70;32.70
41220;DHT22;26951;47.338;9.196;2022-08-11T11:38:12;28.70;33.30
41220;DHT22;26951;47.338;9.196;2022-08-11T11:40:57;28.60;31.80
41220;DHT22;26951;47.338;9.196;2022-08-11T11:44:01;28.50;31.40
41220;DHT22;26951;47.338;9.196;2022-08-11T11:46:46;28.50;32.20
41220;DHT22;26951;47.338;9.196;2022-08-11T11:49:31;28.40;33.00
41220;DHT22;26951;47.338;9.196;2022-08-11T11:52:18;28.50;32.20
41220;DHT22;26951;47.338;9.196;2022-08-11T11:55:03;28.60;33.70
41220;DHT22;26951;47.338;9.196;2022-08-11T11:57:49;28.60;32.50
41220;DHT22;26951;47.338;9.196;2022-08-11T12:00:52;28.70;33.20
41220;DHT22;26951;47.338;9.196;2022-08-11T12:03:56;28.70;31.80
41220;DHT22;26951;47.338;9.196;2022-08-11T12:06:41;28.70;31.60
41220;DHT22;26951;47.338;9.196;2022-08-11T12:09:25;28.80;33.40
41220;DHT22;26951;47.338;9.196;2022-08-11T12:12:10;28.90;31.20
41220;DHT22;26951;47.338;9.196;2022-08-11T12:15:13;29.00;33.90
41220;DHT22;26951;47.338;9.196;2022-08-11T12:18:02;29.30;33.60
41220;DHT22;26951;47.338;9.196;2022-08-11T12:20:47;29.40;33.60
41220;DHT22;26951;47.338;9.196;2022-08-11T12:23:33;29.50;32.30
41220;DHT22;26951;47.338;9.196;2022-08-11T12:26:37;29.60;31.10
41220;DHT22;26951;47.338;9.196;2022-08-11T12:29:42;29.60;30.30
41220;DHT22;26951;47.338;9.196;2022-08-11T12:32:30;29.60;30.60
41220;DHT22;26951;47.338;9.196;2022-08-11T12:35:15;29.50;30.70
41220;DHT22;26951;47.338;9.196;2022-08-11T12:38:00;29.30;31.50
41220;DHT22;26951;47.338;9.196;2022-08-11T12:40:47;29.30;30.40
41220;DHT22;26951;47.338;9.196;2022-08-11T12:43:50;29.30;30.00
41220;DHT22;26951;47.338;9.196;2022-08-11T12:46:54;29.20;29.60
41220;DHT22;26951;47.338;9.196;2022-08-11T12:49:43;29.20;30.30
41220;DHT22;26951;47.338;9.196;2022-08-11T12:52:50;29.20;31.10
41220;DHT22;26951;47.338;9.196;2022-08-11T12:55:39;29.20;30.40
41220;DHT22;26951;47.338;9.196;2022-08-11T12:58:44;29.30;30.60
41220;DHT22;26951;47.338;9.196;2022-08-11T13:01:29;29.20;30.90
41220;DHT22;26951;47.338;9.196;2022-08-11T13:04:33;29.20;30.70
41220;DHT22;26951;47.338;9.196;2022-08-11T13:07:37;29.00;30.20
41220;DHT22;26951;47.338;9.196;2022-08-11T13:10:25;29.10;31.30
41220;DHT22;26951;47.338;9.196;2022-08-11T13:13:30;29.10;30.30
41220;DHT22;26951;47.338;9.196;2022-08-11T13:16:15;29.00;29.90
41220;DHT22;26951;47.338;9.196;2022-08-11T13:19:00;29.00;30.50
41220;DHT22;26951;47.338;9.196;2022-08-11T13:21:46;28.90;30.80
41220;DHT22;26951;47.338;9.196;2022-08-11T13:24:31;29.00;31.50
41220;DHT22;26951;47.338;9.196;2022-08-11T13:27:17;29.10;31.50
41220;DHT22;26951;47.338;9.196;2022-08-11T13:30:02;28.90;30.40
41220;DHT22;26951;47.338;9.196;2022-08-11T13:33:05;29.00;32.40
41220;DHT22;26951;47.338;9.196;2022-08-11T13:35:51;28.90;31.30
41220;DHT22;26951;47.338;9.196;2022-08-11T13:38:36;28.90;31.40
41220;DHT22;26951;47.338;9.196;2022-08-11T13:41:21;28.90;31.80
41220;DHT22;26951;47.338;9.196;2022-08-11T13:44:24;28.90;31.50
41220;DHT22;26951;47.338;9.196;2022-08-11T13:47:12;28.90;31.10
41220;DHT22;26951;47.338;9.196;2022-08-11T13:49:56;28.90;31.30
41220;DHT22;26951;47.338;9.196;2022-08-11T13:52:41;28.80;31.00
41220;DHT22;26951;47.338;9.196;2022-08-11T13:55:26;28.80;31.00
41220;DHT22;26951;47.338;9.196;2022-08-11T13:58:12;28.70;31.50
41220;DHT22;26951;47.338;9.196;2022-08-11T14:00:57;28.70;31.10
41220;DHT22;26951;47.338;9.196;2022-08-11T14:03:42;28.70;31.60
41220;DHT22;26951;47.338;9.196;2022-08-11T14:06:27;28.70;30.60
41220;DHT22;26951;47.338;9.196;2022-08-11T14:09:13;28.80;31.70
41220;DHT22;26951;47.338;9.196;2022-08-11T14:12:01;28.80;31.00
41220;DHT22;26951;47.338;9.196;2022-08-11T14:15:11;28.80;31.50
41220;DHT22;26951;47.338;9.196;2022-08-11T14:18:03;28.70;30.40
41220;DHT22;26951;47.338;9.196;2022-08-11T14:20:57;28.60;30.60
41220;DHT22;26951;47.338;9.196;2022-08-11T14:24:02;28.50;30.80
41220;DHT22;26951;47.338;9.196;2022-08-11T14:26:48;28.40;30.80
41220;DHT22;26951;47.338;9.196;2022-08-11T14:29:35;28.40;31.80
41220;DHT22;26951;47.338;9.196;2022-08-11T14:32:23;28.40;31.30
41220;DHT22;26951;47.338;9.196;2022-08-11T14:35:08;28.30;31.80
41220;DHT22;26951;47.338;9.196;2022-08-11T14:37:54;28.30;31.90
41220;DHT22;26951;47.338;9.196;2022-08-11T14:40:40;28.30;32.20
41220;DHT22;26951;47.338;9.196;2022-08-11T14:43:43;28.40;32.00
41220;DHT22;26951;47.338;9.196;2022-08-11T14:46:47;28.50;31.60
41220;DHT22;26951;47.338;9.196;2022-08-11T14:49:48;28.50;31.90
41220;DHT22;26951;47.338;9.196;2022-08-11T14:52:35;28.40;31.80
41220;DHT22;26951;47.338;9.196;2022-08-11T14:55:20;28.40;31.50
41220;DHT22;26951;47.338;9.196;2022-08-11T14:58:25;28.40;31.90
41220;DHT22;26951;47.338;9.196;2022-08-11T15:01:11;28.40;31.60
41220;DHT22;26951;47.338;9.196;2022-08-11T15:04:14;28.30;30.30
41220;DHT22;26951;47.338;9.196;2022-08-11T15:07:00;28.20;31.90
41220;DHT22;26951;47.338;9.196;2022-08-11T15:09:44;28.30;32.00
41220;DHT22;26951;47.338;9.196;2022-08-11T15:12:29;28.30;31.80
41220;DHT22;26951;47.338;9.196;2022-08-11T15:15:15;28.30;31.00
41220;DHT22;26951;47.338;9.196;2022-08-11T15:18:21;28.10;30.00
41220;DHT22;26951;47.338;9.196;2022-08-11T15:21:07;27.90;31.20
41220;DHT22;26951;47.338;9.196;2022-08-11T15:24:10;27.80;31.60
41220;DHT22;26951;47.338;9.196;2022-08-11T15:27:08;27.80;32.50
41220;DHT22;26951;47.338;9.196;2022-08-11T15:30:13;27.80;32.00
41220;DHT22;26951;47.338;9.196;2022-08-11T15:33:17;27.70;31.90
41220;DHT22;26951;47.338;9.196;2022-08-11T15:36:22;27.80;32.00
41220;DHT22;26951;47.338;9.196;2022-08-11T15:39:39;27.80;31.30
41220;DHT22;26951;47.338;9.196;2022-08-11T15:42:54;27.70;31.60
41220;DHT22;26951;47.338;9.196;2022-08-11T15:46:11;27.70;31.20
41220;DHT22;26951;47.338;9.196;2022-08-11T15:49:04;27.60;31.70
41220;DHT22;26951;47.338;9.196;2022-08-11T15:52:02;27.60;31.20
41220;DHT22;26951;47.338;9.196;2022-08-11T15:54:49;27.60;31.20
41220;DHT22;26951;47.338;9.196;2022-08-11T15:57:34;27.60;30.80
41220;DHT22;26951;47.338;9.196;2022-08-11T16:00:54;27.40;30.30
41220;DHT22;26951;47.338;9.196;2022-08-11T16:04:06;27.20;29.90
41220;DHT22;26951;47.338;9.196;2022-08-11T16:07:07;27.20;30.90
41220;DHT22;26951;47.338;9.196;2022-08-11T16:12:44;27.00;31.40
41220;DHT22;26951;47.338;9.196;2022-08-11T16:15:50;27.00;31.30
41220;DHT22;26951;47.338;9.196;2022-08-11T16:18:56;26.90;31.20
41220;DHT22;26951;47.338;9.196;2022-08-11T16:21:42;26.70;31.30
41220;DHT22;26951;47.338;9.196;2022-08-11T16:24:27;26.70;30.90
41220;DHT22;26951;47.338;9.196;2022-08-11T16:27:13;26.60;31.30
41220;DHT22;26951;47.338;9.196;2022-08-11T16:29:59;26.60;31.00
41220;DHT22;26951;47.338;9.196;2022-08-11T16:32:48;26.50;30.20
41220;DHT22;26951;47.338;9.196;2022-08-11T16:35:36;26.50;31.10
41220;DHT22;26951;47.338;9.196;2022-08-11T16:38:42;26.50;31.90
41220;DHT22;26951;47.338;9.196;2022-08-11T16:41:30;26.40;31.80
41220;DHT22;26951;47.338;9.196;2022-08-11T16:44:34;26.40;33.20
41220;DHT22;26951;47.338;9.196;2022-08-11T16:47:38;26.40;32.90
41220;DHT22;26951;47.338;9.196;2022-08-11T16:50:23;26.30;32.00
41220;DHT22;26951;47.338;9.196;2022-08-11T16:53:08;26.30;32.00
41220;DHT22;26951;47.338;9.196;2022-08-11T16:55:53;26.30;31.90
41220;DHT22;26951;47.338;9.196;2022-08-11T16:58:38;26.30;32.80
41220;DHT22;26951;47.338;9.196;2022-08-11T17:04:46;26.20;32.80
41220;DHT22;26951;47.338;9.196;2022-08-11T17:07:52;26.10;33.00
41220;DHT22;26951;47.338;9.196;2022-08-11T17:11:07;26.10;33.70
41220;DHT22;26951;47.338;9.196;2022-08-11T17:14:21;26.00;33.30
41220;DHT22;26951;47.338;9.196;2022-08-11T17:17:13;25.80;32.90
41220;DHT22;26951;47.338;9.196;2022-08-11T17:20:02;25.70;32.80
41220;DHT22;26951;47.338;9.196;2022-08-11T17:22:48;25.50;33.30
41220;DHT22;26951;47.338;9.196;2022-08-11T17:25:53;25.40;33.30
41220;DHT22;26951;47.338;9.196;2022-08-11T17:28:38;25.20;33.30
41220;DHT22;26951;47.338;9.196;2022-08-11T17:31:25;25.10;33.20
41220;DHT22;26951;47.338;9.196;2022-08-11T17:34:29;25.00;33.90
41220;DHT22;26951;47.338;9.196;2022-08-11T17:37:34;24.80;34.10
41220;DHT22;26951;47.338;9.196;2022-08-11T17:40:21;24.60;33.90
41220;DHT22;26951;47.338;9.196;2022-08-11T17:43:08;24.50;34.30
41220;DHT22;26951;47.338;9.196;2022-08-11T17:46:12;24.30;34.60
41220;DHT22;26951;47.338;9.196;2022-08-11T17:49:16;24.10;34.80
41220;DHT22;26951;47.338;9.196;2022-08-11T17:52:05;23.90;35.60
41220;DHT22;26951;47.338;9.196;2022-08-11T17:55:08;23.70;35.60
41220;DHT22;26951;47.338;9.196;2022-08-11T17:58:12;23.50;36.40
41220;DHT22;26951;47.338;9.196;2022-08-11T18:01:18;23.30;36.40
41220;DHT22;26951;47.338;9.196;2022-08-11T18:04:12;23.20;37.10
41220;DHT22;26951;47.338;9.196;2022-08-11T18:07:05;23.00;38.30
41220;DHT22;26951;47.338;9.196;2022-08-11T18:10:09;22.80;37.40
41220;DHT22;26951;47.338;9.196;2022-08-11T18:13:12;22.70;38.30
41220;DHT22;26951;47.338;9.196;2022-08-11T18:16:17;22.50;39.40
41220;DHT22;26951;47.338;9.196;2022-08-11T18:19:20;22.30;39.30
41220;DHT22;26951;47.338;9.196;2022-08-11T18:22:27;22.10;39.60
41220;DHT22;26951;47.338;9.196;2022-08-11T18:25:33;21.90;40.40
41220;DHT22;26951;47.338;9.196;2022-08-11T18:28:45;21.70;40.90
41220;DHT22;26951;47.338;9.196;2022-08-11T18:31:50;21.50;41.60
41220;DHT22;26951;47.338;9.196;2022-08-11T18:34:57;21.40;41.80
41220;DHT22;26951;47.338;9.196;2022-08-11T18:38:02;21.20;42.30
41220;DHT22;26951;47.338;9.196;2022-08-11T18:41:07;21.10;42.90
41220;DHT22;26951;47.338;9.196;2022-08-11T18:44:12;20.90;44.00
41220;DHT22;26951;47.338;9.196;2022-08-11T18:47:19;20.80;44.20
41220;DHT22;26951;47.338;9.196;2022-08-11T18:50:23;20.50;45.20
41220;DHT22;26951;47.338;9.196;2022-08-11T18:53:27;20.30;46.60
41220;DHT22;26951;47.338;9.196;2022-08-11T18:56:31;20.20;46.50
41220;DHT22;26951;47.338;9.196;2022-08-11T18:59:37;20.10;46.40
41220;DHT22;26951;47.338;9.196;2022-08-11T19:02:42;19.90;47.40
41220;DHT22;26951;47.338;9.196;2022-08-11T19:05:48;19.80;47.20
41220;DHT22;26951;47.338;9.196;2022-08-11T19:08:56;19.70;48.50
41220;DHT22;26951;47.338;9.196;2022-08-11T19:12:01;19.60;47.70
41220;DHT22;26951;47.338;9.196;2022-08-11T19:15:05;19.60;48.10
41220;DHT22;26951;47.338;9.196;2022-08-11T19:18:12;19.50;49.20
41220;DHT22;26951;47.338;9.196;2022-08-11T19:21:17;19.50;49.10
41220;DHT22;26951;47.338;9.196;2022-08-11T19:24:22;19.40;48.30
41220;DHT22;26951;47.338;9.196;2022-08-11T19:27:27;19.40;48.40
41220;DHT22;26951;47.338;9.196;2022-08-11T19:30:32;19.40;48.00
41220;DHT22;26951;47.338;9.196;2022-08-11T19:33:38;19.40;47.80
41220;DHT22;26951;47.338;9.196;2022-08-11T19:36:41;19.30;48.00
41220;DHT22;26951;47.338;9.196;2022-08-11T19:39:46;19.30;48.50
41220;DHT22;26951;47.338;9.196;2022-08-11T19:42:51;19.30;48.70
41220;DHT22;26951;47.338;9.196;2022-08-11T19:45:57;19.20;49.20
41220;DHT22;26951;47.338;9.196;2022-08-11T19:49:02;19.20;49.40
41220;DHT22;26951;47.338;9.196;2022-08-11T19:52:06;19.10;50.00
41220;DHT22;26951;47.338;9.196;2022-08-11T19:55:09;19.00;50.10
41220;DHT22;26951;47.338;9.196;2022-08-11T19:58:13;19.00;50.80
41220;DHT22;26951;47.338;9.196;2022-08-11T20:01:17;18.90;51.00
41220;DHT22;26951;47.338;9.196;2022-08-11T20:04:20;18.80;50.50
41220;DHT22;26951;47.338;9.196;2022-08-11T20:07:24;18.70;51.00
41220;DHT22;26951;47.338;9.196;2022-08-11T20:10:28;18.60;51.10
41220;DHT22;26951;47.338;9.196;2022-08-11T20:13:33;18.50;51.30
41220;DHT22;26951;47.338;9.196;2022-08-11T20:16:37;18.50;51.60
41220;DHT22;26951;47.338;9.196;2022-08-11T20:19:41;18.40;52.20
41220;DHT22;26951;47.338;9.196;2022-08-11T20:22:45;18.30;52.30
41220;DHT22;26951;47.338;9.196;2022-08-11T20:25:50;18.20;51.60
41220;DHT22;26951;47.338;9.196;2022-08-11T20:28:55;18.10;51.80
41220;DHT22;26951;47.338;9.196;2022-08-11T20:32:00;18.00;52.10
41220;DHT22;26951;47.338;9.196;2022-08-11T20:35:04;17.90;51.30
41220;DHT22;26951;47.338;9.196;2022-08-11T20:38:08;17.90;52.80
41220;DHT22;26951;47.338;9.196;2022-08-11T20:41:12;17.80;52.80
41220;DHT22;26951;47.338;9.196;2022-08-11T20:44:16;17.70;53.20
41220;DHT22;26951;47.338;9.196;2022-08-11T20:47:20;17.60;52.70
41220;DHT22;26951;47.338;9.196;2022-08-11T20:50:25;17.50;53.40
41220;DHT22;26951;47.338;9.196;2022-08-11T20:53:29;17.40;53.50
41220;DHT22;26951;47.338;9.196;2022-08-11T20:56:34;17.40;54.60
41220;DHT22;26951;47.338;9.196;2022-08-11T20:59:38;17.40;54.20
41220;DHT22;26951;47.338;9.196;2022-08-11T21:02:42;17.30;54.50
41220;DHT22;26951;47.338;9.196;2022-08-11T21:05:46;17.20;54.00
41220;DHT22;26951;47.338;9.196;2022-08-11T21:08:50;17.10;54.30
41220;DHT22;26951;47.338;9.196;2022-08-11T21:11:55;16.90;54.20
41220;DHT22;26951;47.338;9.196;2022-08-11T21:15:02;16.90;54.30